Time;durP1;ratioP1;P1;durP2;ratioP2;P2;SDS_P1;SDS_P2;PMS_P1;PMS_P2;Temp;Humidity;BMP_temperature;BMP_pressure;BME280_temperature;BME280_humidity;BME280_pressure;Samples;Min_cycle;Max_cycle;Signal;HPM_P1;HPM_P2
2022/06/27 00:00:23;0.00;0.00;0.62;0.00;0.00;0.62;3.33;3.03;;;31.00;32.40;;;;;;2252352;61;20362;-60
2022/06/27 00:03:07;0.00;0.00;0.62;0.00;0.00;0.62;3.97;3.57;;;31.00;32.50;;;;;;2251394;61;21047;-61
2022/06/27 00:05:53;0.00;0.00;0.62;0.00;0.00;0.62;4.17;2.87;;;30.90;32.50;;;;;;2250930;61;20472;-60
2022/06/27 00:08:38;0.00;0.00;0.62;0.00;0.00;0.62;3.43;3.13;;;30.80;32.40;;;;;;2251033;61;20397;-61
2022/06/27 00:11:24;0.00;0.00;0.62;0.00;0.00;0.62;3.50;3.20;;;30.80;32.50;;;;;;2251851;61;21017;-60
2022/06/27 00:14:09;0.00;0.00;0.62;0.00;0.00;0.62;2.93;2.73;;;30.80;32.50;;;;;;2251162;61;20506;-60
2022/06/27 00:16:54;0.00;0.00;0.62;0.00;0.00;0.62;2.90;2.70;;;30.80;32.60;;;;;;2251189;61;20370;-60
2022/06/27 00:19:39;0.00;0.00;0.62;0.00;0.00;0.62;3.80;2.90;;;30.80;32.60;;;;;;2251863;61;20804;-63
2022/06/27 00:22:24;0.00;0.00;0.62;0.00;0.00;0.62;3.20;2.70;;;30.70;32.60;;;;;;2252747;61;20382;-62
2022/06/27 00:25:10;0.00;0.00;0.62;0.00;0.00;0.62;3.10;2.90;;;30.70;32.70;;;;;;2254425;61;20369;-60
2022/06/27 00:27:57;0.00;0.00;0.62;0.00;0.00;0.62;3.30;3.00;;;30.70;32.70;;;;;;2255102;61;20844;-59
2022/06/27 00:30:42;0.00;0.00;0.62;0.00;0.00;0.62;3.43;3.13;;;30.70;32.70;;;;;;2253450;61;20410;-58
2022/06/27 00:33:26;0.00;0.00;0.62;0.00;0.00;0.62;3.70;2.80;;;30.70;32.80;;;;;;2251646;61;20366;-56
2022/06/27 00:36:11;0.00;0.00;0.62;0.00;0.00;0.62;3.10;2.83;;;30.70;32.90;;;;;;2252044;61;20465;-50
2022/06/27 00:38:56;0.00;0.00;0.62;0.00;0.00;0.62;5.93;3.30;;;30.70;33.00;;;;;;2251902;61;20386;-55
2022/06/27 00:41:41;0.00;0.00;0.62;0.00;0.00;0.62;3.30;3.00;;;30.60;32.90;;;;;;2252221;61;20426;-59
2022/06/27 00:44:33;0.00;0.00;0.62;0.00;0.00;0.62;3.50;3.20;;;30.60;32.90;;;;;;2250757;61;20382;-55
2022/06/27 00:47:20;0.00;0.00;0.62;0.00;0.00;0.62;3.93;3.63;;;30.60;32.80;;;;;;2251878;61;20420;-54
2022/06/27 00:50:07;0.00;0.00;0.62;0.00;0.00;0.62;3.70;3.10;;;30.50;32.60;;;;;;2248193;61;20455;-57
2022/06/27 00:52:51;0.00;0.00;0.62;0.00;0.00;0.62;4.93;3.53;;;30.50;32.60;;;;;;2250999;61;20501;-54
2022/06/27 00:55:36;0.00;0.00;0.62;0.00;0.00;0.62;2.80;2.60;;;30.40;32.60;;;;;;2248341;61;20454;-58
2022/06/27 00:58:22;0.00;0.00;0.62;0.00;0.00;0.62;3.13;2.60;;;30.40;32.80;;;;;;2250898;61;20429;-56
2022/06/27 01:01:08;0.00;0.00;0.62;0.00;0.00;0.62;3.03;2.73;;;30.30;32.80;;;;;;2251045;61;20839;-58
2022/06/27 01:03:53;0.00;0.00;0.62;0.00;0.00;0.62;3.90;3.20;;;30.30;32.80;;;;;;2247789;61;20394;-57
2022/06/27 01:06:38;0.00;0.00;0.62;0.00;0.00;0.62;2.77;2.57;;;30.30;32.90;;;;;;2250507;61;21172;-57
2022/06/27 01:09:24;0.00;0.00;0.62;0.00;0.00;0.62;3.73;2.63;;;30.30;33.70;;;;;;2251001;61;20381;-57
2022/06/27 01:12:10;0.00;0.00;0.62;0.00;0.00;0.62;2.90;2.60;;;30.30;33.10;;;;;;2250758;61;20367;-59
2022/06/27 01:14:56;0.00;0.00;0.62;0.00;0.00;0.62;2.60;2.40;;;30.30;33.20;;;;;;2250970;61;20797;-57
2022/06/27 01:17:42;0.00;0.00;0.62;0.00;0.00;0.62;2.93;2.63;;;30.30;33.10;;;;;;2251269;61;20986;-57
2022/06/27 01:20:27;0.00;0.00;0.62;0.00;0.00;0.62;3.50;3.20;;;30.30;33.10;;;;;;2250581;61;20371;-55
2022/06/27 01:23:14;0.00;0.00;0.62;0.00;0.00;0.62;3.13;2.83;;;30.40;33.20;;;;;;2247163;61;20398;-56
2022/06/27 01:26:00;0.00;0.00;0.62;0.00;0.00;0.62;3.00;2.73;;;30.40;33.30;;;;;;2248378;61;20911;-58
2022/06/27 01:28:45;0.00;0.00;0.62;0.00;0.00;0.62;2.73;2.53;;;30.40;33.20;;;;;;2245101;61;20790;-57
2022/06/27 01:31:31;0.00;0.00;0.62;0.00;0.00;0.62;3.60;2.63;;;30.40;33.80;;;;;;2247406;61;20417;-55
2022/06/27 01:34:17;0.00;0.00;0.62;0.00;0.00;0.62;4.40;3.10;;;30.40;33.30;;;;;;2250603;61;20478;-56
2022/06/27 01:37:05;0.00;0.00;0.62;0.00;0.00;0.62;3.80;3.50;;;30.40;33.50;;;;;;2247697;61;20987;-57
2022/06/27 01:39:58;0.00;0.00;0.62;0.00;0.00;0.62;3.80;3.40;;;30.40;33.60;;;;;;2248270;61;20392;-57
2022/06/27 01:42:43;0.00;0.00;0.62;0.00;0.00;0.62;3.77;3.47;;;30.40;33.80;;;;;;2247803;61;20434;-55
2022/06/27 01:45:29;0.00;0.00;0.62;0.00;0.00;0.62;4.93;3.00;;;30.40;33.70;;;;;;2247415;61;20409;-57
2022/06/27 01:48:15;0.00;0.00;0.62;0.00;0.00;0.62;3.40;2.93;;;30.40;33.80;;;;;;2250663;61;20395;-58
2022/06/27 01:51:01;0.00;0.00;0.62;0.00;0.00;0.62;4.63;3.30;;;30.40;33.80;;;;;;2250954;61;20405;-57
2022/06/27 01:53:51;0.00;0.00;0.62;0.00;0.00;0.62;3.80;3.40;;;30.30;33.60;;;;;;2247544;61;20434;-57
2022/06/27 01:56:38;0.00;0.00;0.62;0.00;0.00;0.62;3.87;3.47;;;30.30;33.80;;;;;;2247633;61;20931;-57
2022/06/27 01:59:28;0.00;0.00;0.62;0.00;0.00;0.62;4.53;3.27;;;30.30;33.90;;;;;;2248136;61;20398;-57
2022/06/27 02:02:25;0.00;0.00;0.62;0.00;0.00;0.62;3.53;3.17;;;30.30;33.70;;;;;;2248416;61;20394;-57
2022/06/27 02:05:10;0.00;0.00;0.62;0.00;0.00;0.62;4.17;3.23;;;30.30;33.70;;;;;;2248214;61;20386;-58
2022/06/27 02:07:58;0.00;0.00;0.62;0.00;0.00;0.62;4.47;3.63;;;30.30;33.70;;;;;;2251061;61;20934;-57
2022/06/27 02:10:43;0.00;0.00;0.62;0.00;0.00;0.62;4.67;3.97;;;30.30;34.10;;;;;;2251325;61;20386;-55
2022/06/27 02:13:30;0.00;0.00;0.62;0.00;0.00;0.62;3.90;3.40;;;30.30;34.10;;;;;;2251069;61;20375;-56
2022/06/27 02:16:17;0.00;0.00;0.62;0.00;0.00;0.62;4.03;3.73;;;30.30;34.10;;;;;;2248517;61;20402;-56
2022/06/27 02:19:03;0.00;0.00;0.62;0.00;0.00;0.62;4.40;4.00;;;30.30;34.00;;;;;;2248524;61;20449;-58
2022/06/27 02:21:49;0.00;0.00;0.62;0.00;0.00;0.62;4.30;3.37;;;30.30;33.90;;;;;;2248038;61;20371;-58
2022/06/27 02:24:34;0.00;0.00;0.62;0.00;0.00;0.62;3.80;3.50;;;30.30;33.90;;;;;;2251902;61;20439;-57
2022/06/27 02:27:21;0.00;0.00;0.62;0.00;0.00;0.62;3.97;3.20;;;30.30;33.80;;;;;;2251366;61;20379;-57
2022/06/27 02:30:09;0.00;0.00;0.62;0.00;0.00;0.62;4.20;3.77;;;30.30;33.70;;;;;;2248456;61;20520;-56
2022/06/27 02:32:54;0.00;0.00;0.62;0.00;0.00;0.62;3.50;3.20;;;30.30;33.60;;;;;;2251768;61;20375;-57
2022/06/27 02:35:39;0.00;0.00;0.62;0.00;0.00;0.62;5.03;3.30;;;30.20;33.60;;;;;;2251049;61;20406;-56
2022/06/27 02:38:25;0.00;0.00;0.62;0.00;0.00;0.62;3.70;3.33;;;30.30;33.70;;;;;;2251746;61;20816;-58
2022/06/27 02:41:15;0.00;0.00;0.62;0.00;0.00;0.62;4.70;4.17;;;30.30;33.60;;;;;;2248518;61;20383;-55
2022/06/27 02:44:04;0.00;0.00;0.62;0.00;0.00;0.62;4.97;4.57;;;30.20;33.60;;;;;;2250879;61;20394;-55
2022/06/27 02:46:51;0.00;0.00;0.62;0.00;0.00;0.62;5.00;4.60;;;30.30;33.70;;;;;;2248914;61;20399;-57
2022/06/27 02:49:36;0.00;0.00;0.62;0.00;0.00;0.62;4.30;3.90;;;30.20;33.90;;;;;;2248152;61;20446;-57
2022/06/27 02:52:28;0.00;0.00;0.62;0.00;0.00;0.62;4.20;3.90;;;30.20;33.90;;;;;;2248498;61;20401;-56
2022/06/27 02:55:31;0.00;0.00;0.62;0.00;0.00;0.62;4.10;3.77;;;30.20;33.90;;;;;;2248338;61;20374;-57
2022/06/27 02:58:27;0.00;0.00;0.62;0.00;0.00;0.62;4.20;3.70;;;30.20;33.90;;;;;;2248389;61;20437;-56
2022/06/27 03:01:13;0.00;0.00;0.62;0.00;0.00;0.62;5.47;4.80;;;30.20;33.70;;;;;;2251504;61;20494;-58
2022/06/27 03:04:01;0.00;0.00;0.62;0.00;0.00;0.62;4.60;4.20;;;30.20;34.50;;;;;;2250836;61;20851;-58
2022/06/27 03:06:49;0.00;0.00;0.62;0.00;0.00;0.62;4.30;3.83;;;30.10;34.60;;;;;;2248087;61;20409;-57
2022/06/27 03:09:34;0.00;0.00;0.62;0.00;0.00;0.62;3.93;3.63;;;30.10;33.90;;;;;;2251662;61;20475;-54
2022/06/27 03:12:19;0.00;0.00;0.62;0.00;0.00;0.62;4.20;3.80;;;30.10;33.90;;;;;;2251482;61;20370;-57
2022/06/27 03:15:06;0.00;0.00;0.62;0.00;0.00;0.62;4.13;3.57;;;30.10;33.80;;;;;;2248137;61;20364;-57
2022/06/27 03:17:51;0.00;0.00;0.62;0.00;0.00;0.62;4.17;3.80;;;30.10;33.90;;;;;;2248377;61;20389;-57
2022/06/27 03:20:46;0.00;0.00;0.62;0.00;0.00;0.62;3.73;3.43;;;30.10;33.80;;;;;;2251565;61;20362;-58
2022/06/27 03:23:37;0.00;0.00;0.62;0.00;0.00;0.62;4.20;3.90;;;30.10;33.60;;;;;;2248503;61;20927;-57
2022/06/27 03:26:22;0.00;0.00;0.62;0.00;0.00;0.62;4.00;3.60;;;30.10;33.60;;;;;;2248308;61;20443;-57
2022/06/27 03:29:09;0.00;0.00;0.62;0.00;0.00;0.62;3.70;3.40;;;30.10;33.60;;;;;;2248171;61;20433;-57
2022/06/27 03:31:56;0.00;0.00;0.62;0.00;0.00;0.62;4.20;3.40;;;30.10;33.60;;;;;;2251008;61;20919;-59
2022/06/27 03:34:41;0.00;0.00;0.62;0.00;0.00;0.62;3.37;3.17;;;30.10;33.60;;;;;;2248227;61;20494;-59
2022/06/27 03:37:37;0.00;0.00;0.62;0.00;0.00;0.62;4.10;3.80;;;30.10;33.60;;;;;;2248208;61;20366;-59
2022/06/27 03:40:23;0.00;0.00;0.62;0.00;0.00;0.62;4.20;3.80;;;30.10;33.70;;;;;;2248369;61;20378;-57
2022/06/27 03:43:09;0.00;0.00;0.62;0.00;0.00;0.62;5.03;4.60;;;30.10;33.70;;;;;;2247834;61;20385;-59
2022/06/27 03:45:55;0.00;0.00;0.62;0.00;0.00;0.62;4.20;3.73;;;30.10;33.90;;;;;;2248589;61;20390;-55
2022/06/27 03:52:02;0.00;0.00;0.62;0.00;0.00;0.62;4.30;4.00;;;30.00;33.90;;;;;;2251310;61;20370;-58
2022/06/27 03:54:49;0.00;0.00;0.62;0.00;0.00;0.62;3.37;3.07;;;30.00;33.90;;;;;;2247803;61;21166;-56
2022/06/27 03:57:34;0.00;0.00;0.62;0.00;0.00;0.62;3.70;3.40;;;30.00;33.90;;;;;;2248250;61;20884;-56
2022/06/27 04:00:22;0.00;0.00;0.62;0.00;0.00;0.62;3.80;3.47;;;30.00;33.90;;;;;;2251485;61;20370;-58
2022/06/27 04:03:10;0.00;0.00;0.62;0.00;0.00;0.62;4.63;4.23;;;30.00;34.00;;;;;;2247938;61;20382;-58
2022/06/27 04:06:02;0.00;0.00;0.62;0.00;0.00;0.62;3.63;3.33;;;30.00;34.10;;;;;;2247977;61;20429;-58
2022/06/27 04:08:47;0.00;0.00;0.62;0.00;0.00;0.62;3.50;3.20;;;30.00;34.10;;;;;;2248506;61;20471;-57
2022/06/27 04:11:34;0.00;0.00;0.62;0.00;0.00;0.62;3.40;3.10;;;30.00;34.00;;;;;;2248127;61;20366;-54
2022/06/27 04:14:19;0.00;0.00;0.62;0.00;0.00;0.62;4.20;3.70;;;30.00;34.00;;;;;;2247926;61;20934;-57
2022/06/27 04:17:37;0.00;0.00;0.62;0.00;0.00;0.62;4.27;3.53;;;30.00;33.90;;;;;;2249911;61;20418;-58
2022/06/27 04:20:42;0.00;0.00;0.62;0.00;0.00;0.62;3.73;3.43;;;30.00;33.90;;;;;;2248368;61;20421;-55
2022/06/27 04:23:28;0.00;0.00;0.62;0.00;0.00;0.62;3.93;3.53;;;30.00;33.90;;;;;;2250883;61;20394;-58
2022/06/27 04:26:32;0.00;0.00;0.62;0.00;0.00;0.62;3.57;3.27;;;30.00;33.90;;;;;;2251174;61;20359;-56
2022/06/27 04:29:17;0.00;0.00;0.62;0.00;0.00;0.62;3.70;3.40;;;30.00;33.80;;;;;;2247921;61;20453;-58
2022/06/27 04:32:05;0.00;0.00;0.62;0.00;0.00;0.62;3.40;3.10;;;30.00;33.80;;;;;;2248181;61;20366;-58
2022/06/27 04:34:51;0.00;0.00;0.62;0.00;0.00;0.62;4.60;3.90;;;30.00;33.80;;;;;;2247736;61;20888;-56
2022/06/27 04:37:40;0.00;0.00;0.62;0.00;0.00;0.62;3.33;3.13;;;30.00;33.80;;;;;;2248635;61;20381;-58
2022/06/27 04:40:43;0.00;0.00;0.62;0.00;0.00;0.62;3.03;2.77;;;30.00;33.70;;;;;;2250973;61;20406;-56
2022/06/27 04:43:33;0.00;0.00;0.62;0.00;0.00;0.62;3.80;3.40;;;30.00;33.70;;;;;;2247640;61;20394;-58
2022/06/27 04:46:18;0.00;0.00;0.62;0.00;0.00;0.62;3.93;3.63;;;29.90;33.60;;;;;;2248127;61;20370;-59
2022/06/27 04:49:32;0.00;0.00;0.62;0.00;0.00;0.62;6.00;3.50;;;30.00;33.60;;;;;;2250852;61;20394;-60
2022/06/27 04:52:18;0.00;0.00;0.62;0.00;0.00;0.62;5.03;3.37;;;30.00;33.70;;;;;;2248802;61;20409;-57
2022/06/27 04:55:07;0.00;0.00;0.62;0.00;0.00;0.62;3.97;3.37;;;30.00;33.60;;;;;;2247878;61;20410;-57
2022/06/27 04:57:53;0.00;0.00;0.62;0.00;0.00;0.62;3.53;3.23;;;30.00;33.80;;;;;;2250659;61;20453;-54
2022/06/27 05:00:39;0.00;0.00;0.62;0.00;0.00;0.62;4.00;3.63;;;30.00;33.70;;;;;;2251673;61;20371;-58
2022/06/27 05:03:34;0.00;0.00;0.62;0.00;0.00;0.62;3.93;3.10;;;30.00;33.70;;;;;;2250856;61;20402;-56
2022/06/27 05:06:24;0.00;0.00;0.62;0.00;0.00;0.62;3.33;3.03;;;30.00;33.80;;;;;;2248759;61;20584;-58
2022/06/27 05:09:10;0.00;0.00;0.62;0.00;0.00;0.62;4.03;3.70;;;30.00;33.80;;;;;;2248602;61;20409;-59
2022/06/27 05:11:55;0.00;0.00;0.62;0.00;0.00;0.62;7.47;4.20;;;29.90;33.70;;;;;;2251905;61;20782;-63
2022/06/27 05:14:41;0.00;0.00;0.62;0.00;0.00;0.62;3.83;3.20;;;30.00;33.80;;;;;;2248836;61;20887;-60
2022/06/27 05:17:30;0.00;0.00;0.62;0.00;0.00;0.62;4.13;3.63;;;29.90;33.70;;;;;;2248875;61;20410;-59
2022/06/27 05:20:16;0.00;0.00;0.62;0.00;0.00;0.62;3.90;3.60;;;29.90;33.60;;;;;;2251409;61;20366;-60
2022/06/27 05:23:02;0.00;0.00;0.62;0.00;0.00;0.62;3.80;3.50;;;29.90;33.60;;;;;;2250958;61;20389;-60
2022/06/27 05:25:48;0.00;0.00;0.62;0.00;0.00;0.62;3.70;3.40;;;29.90;33.60;;;;;;2250999;61;20406;-61
2022/06/27 05:28:33;0.00;0.00;0.62;0.00;0.00;0.62;3.87;3.57;;;29.90;33.70;;;;;;2251897;61;20919;-61
2022/06/27 05:31:19;0.00;0.00;0.62;0.00;0.00;0.62;4.70;4.30;;;29.90;33.70;;;;;;2251920;61;20362;-62
2022/06/27 05:34:06;0.00;0.00;0.62;0.00;0.00;0.62;4.40;3.67;;;29.90;33.70;;;;;;2251164;61;20375;-62
2022/06/27 05:36:51;0.00;0.00;0.62;0.00;0.00;0.62;4.23;3.83;;;29.90;33.70;;;;;;2249204;61;20775;-62
2022/06/27 05:39:36;0.00;0.00;0.62;0.00;0.00;0.62;3.87;3.57;;;29.90;33.70;;;;;;2248755;61;20406;-61
2022/06/27 05:42:21;0.00;0.00;0.62;0.00;0.00;0.62;3.73;3.43;;;29.90;33.60;;;;;;2248547;61;20933;-61
2022/06/27 05:45:09;0.00;0.00;0.62;0.00;0.00;0.62;4.10;3.70;;;29.90;33.60;;;;;;2251439;61;20363;-61
2022/06/27 05:48:07;0.00;0.00;0.62;0.00;0.00;0.62;4.40;4.03;;;29.90;33.50;;;;;;2248663;61;20402;-63
2022/06/27 05:51:00;0.00;0.00;0.62;0.00;0.00;0.62;4.00;3.60;;;29.90;33.40;;;;;;2252352;61;20421;-60
2022/06/27 05:53:47;0.00;0.00;0.62;0.00;0.00;0.62;4.60;4.20;;;29.90;33.50;;;;;;2249251;61;20394;-62
2022/06/27 05:56:33;0.00;0.00;0.62;0.00;0.00;0.62;6.70;3.87;;;29.80;33.60;;;;;;2251504;61;20367;-62
2022/06/27 05:59:18;0.00;0.00;0.62;0.00;0.00;0.62;6.83;4.47;;;29.80;33.70;;;;;;2248809;61;21227;-60
2022/06/27 06:02:04;0.00;0.00;0.62;0.00;0.00;0.62;4.60;4.20;;;29.80;33.80;;;;;;2248390;61;20374;-61
2022/06/27 06:04:54;0.00;0.00;0.62;0.00;0.00;0.62;5.40;4.90;;;29.70;33.90;;;;;;2248592;61;20394;-58
2022/06/27 06:07:43;0.00;0.00;0.62;0.00;0.00;0.62;6.30;5.47;;;29.60;34.30;;;;;;2248721;61;20915;-56
2022/06/27 06:10:29;0.00;0.00;0.62;0.00;0.00;0.62;9.77;5.93;;;29.60;34.60;;;;;;2246872;61;20398;-60
2022/06/27 06:13:14;0.00;0.00;0.62;0.00;0.00;0.62;5.97;5.47;;;29.50;34.60;;;;;;2248950;61;20445;-57
2022/06/27 06:15:59;0.00;0.00;0.62;0.00;0.00;0.62;6.40;5.80;;;29.50;34.80;;;;;;2248651;61;20471;-57
2022/06/27 06:18:47;0.00;0.00;0.62;0.00;0.00;0.62;5.90;5.30;;;29.40;34.90;;;;;;2247901;61;20445;-57
2022/06/27 06:21:33;0.00;0.00;0.62;0.00;0.00;0.62;6.13;5.17;;;29.40;35.10;;;;;;2249064;61;20367;-59
2022/06/27 06:24:24;0.00;0.00;0.62;0.00;0.00;0.62;5.20;4.80;;;29.30;35.10;;;;;;2248419;61;20389;-60
2022/06/27 06:27:09;0.00;0.00;0.62;0.00;0.00;0.62;4.80;4.40;;;29.30;35.40;;;;;;2248161;61;20518;-59
2022/06/27 06:29:54;0.00;0.00;0.62;0.00;0.00;0.62;5.50;5.00;;;29.20;35.40;;;;;;2249138;61;20371;-60
2022/06/27 06:32:40;0.00;0.00;0.62;0.00;0.00;0.62;5.70;5.20;;;29.20;35.50;;;;;;2245678;61;20414;-58
2022/06/27 06:35:26;0.00;0.00;0.62;0.00;0.00;0.62;6.33;5.83;;;29.20;35.60;;;;;;2248518;61;20410;-61
2022/06/27 06:38:11;0.00;0.00;0.62;0.00;0.00;0.62;5.70;5.20;;;29.20;35.70;;;;;;2252297;61;20428;-60
2022/06/27 06:40:58;0.00;0.00;0.62;0.00;0.00;0.62;4.60;4.30;;;29.10;35.70;;;;;;2248272;61;20776;-60
2022/06/27 06:43:45;0.00;0.00;0.62;0.00;0.00;0.62;5.03;4.13;;;29.10;35.80;;;;;;2251829;61;20390;-59
2022/06/27 06:46:57;0.00;0.00;0.62;0.00;0.00;0.62;4.80;4.40;;;29.10;35.90;;;;;;2248047;61;20378;-58
2022/06/27 06:50:05;0.00;0.00;0.62;0.00;0.00;0.62;4.53;4.10;;;29.10;35.90;;;;;;2250945;61;20367;-61
2022/06/27 06:52:52;0.00;0.00;0.62;0.00;0.00;0.62;4.67;4.10;;;29.10;35.90;;;;;;2251678;61;20371;-61
2022/06/27 06:55:36;0.00;0.00;0.62;0.00;0.00;0.62;5.30;3.80;;;29.20;36.00;;;;;;2250791;61;20441;-61
2022/06/27 06:58:25;0.00;0.00;0.62;0.00;0.00;0.62;4.50;4.10;;;29.20;35.90;;;;;;2251600;61;20437;-62
2022/06/27 07:01:10;0.00;0.00;0.62;0.00;0.00;0.62;3.90;3.60;;;29.20;35.90;;;;;;2250249;61;20379;-59
2022/06/27 07:03:55;0.00;0.00;0.62;0.00;0.00;0.62;4.40;4.00;;;29.20;35.80;;;;;;2246949;61;20391;-60
2022/06/27 07:06:40;0.00;0.00;0.62;0.00;0.00;0.62;5.27;4.10;;;29.20;35.80;;;;;;2247671;61;20387;-60
2022/06/27 07:09:25;0.00;0.00;0.62;0.00;0.00;0.62;4.70;4.30;;;29.30;35.80;;;;;;2247156;61;20411;-58
2022/06/27 07:12:11;0.00;0.00;0.62;0.00;0.00;0.62;5.50;4.37;;;29.30;35.80;;;;;;2247249;61;20411;-60
2022/06/27 07:14:58;0.00;0.00;0.62;0.00;0.00;0.62;4.60;4.20;;;29.40;35.70;;;;;;2247337;61;20880;-60
2022/06/27 07:17:46;0.00;0.00;0.62;0.00;0.00;0.62;4.77;4.37;;;29.40;35.60;;;;;;2247017;61;20484;-60
2022/06/27 07:20:32;0.00;0.00;0.62;0.00;0.00;0.62;5.47;4.97;;;29.40;35.60;;;;;;2247597;61;20364;-60
2022/06/27 07:23:17;0.00;0.00;0.62;0.00;0.00;0.62;9.30;5.87;;;29.40;35.60;;;;;;2247376;61;20445;-60
2022/06/27 07:26:03;0.00;0.00;0.62;0.00;0.00;0.62;6.90;5.47;;;29.40;35.90;;;;;;2243948;61;20403;-60
2022/06/27 07:28:48;0.00;0.00;0.62;0.00;0.00;0.62;5.20;4.70;;;29.40;35.80;;;;;;2247372;61;20387;-59
2022/06/27 07:31:35;0.00;0.00;0.62;0.00;0.00;0.62;6.87;6.27;;;29.40;35.80;;;;;;2247485;61;20370;-59
2022/06/27 07:34:21;0.00;0.00;0.62;0.00;0.00;0.62;7.00;6.40;;;29.40;35.90;;;;;;2247004;61;20480;-60
2022/06/27 07:37:06;0.00;0.00;0.62;0.00;0.00;0.62;7.33;5.87;;;29.30;36.00;;;;;;2247581;61;20418;-61
2022/06/27 07:39:51;0.00;0.00;0.62;0.00;0.00;0.62;6.03;4.80;;;29.30;36.00;;;;;;2247116;61;20778;-59
2022/06/27 07:42:37;0.00;0.00;0.62;0.00;0.00;0.62;5.00;4.50;;;29.30;36.10;;;;;;2247363;61;20806;-60
2022/06/27 07:45:24;0.00;0.00;0.62;0.00;0.00;0.62;4.30;3.90;;;29.20;36.00;;;;;;2247250;61;20375;-60
2022/06/27 07:48:12;0.00;0.00;0.62;0.00;0.00;0.62;5.00;4.60;;;29.30;36.10;;;;;;2248858;61;20394;-59
2022/06/27 07:50:57;0.00;0.00;0.62;0.00;0.00;0.62;5.30;4.80;;;29.30;36.20;;;;;;2251732;61;20363;-59
2022/06/27 07:53:46;0.00;0.00;0.62;0.00;0.00;0.62;4.87;4.33;;;29.30;36.20;;;;;;2251093;61;20372;-59
2022/06/27 07:56:31;0.00;0.00;0.62;0.00;0.00;0.62;5.00;4.57;;;29.30;36.10;;;;;;2250898;61;20375;-60
2022/06/27 07:59:17;0.00;0.00;0.62;0.00;0.00;0.62;5.60;5.03;;;29.30;36.10;;;;;;2251555;61;20436;-60
2022/06/27 08:02:03;0.00;0.00;0.62;0.00;0.00;0.62;6.00;4.77;;;29.30;36.20;;;;;;2250998;61;20907;-60
2022/06/27 08:04:49;0.00;0.00;0.62;0.00;0.00;0.62;5.30;4.90;;;29.30;36.20;;;;;;2251272;61;20386;-60
2022/06/27 08:07:34;0.00;0.00;0.62;0.00;0.00;0.62;6.90;6.20;;;29.30;36.20;;;;;;2251487;61;20459;-59
2022/06/27 08:10:19;0.00;0.00;0.62;0.00;0.00;0.62;9.17;5.80;;;29.30;36.30;;;;;;2250984;61;20371;-60
2022/06/27 08:13:06;0.00;0.00;0.62;0.00;0.00;0.62;6.63;5.50;;;29.30;36.40;;;;;;2251339;61;20501;-58
2022/06/27 08:15:52;0.00;0.00;0.62;0.00;0.00;0.62;6.73;6.13;;;29.30;36.30;;;;;;2251052;61;20366;-60
2022/06/27 08:18:38;0.00;0.00;0.62;0.00;0.00;0.62;6.80;5.87;;;29.30;36.30;;;;;;2250914;61;20383;-60
2022/06/27 08:21:27;0.00;0.00;0.62;0.00;0.00;0.62;6.20;5.70;;;29.30;36.30;;;;;;2251528;61;20459;-59
2022/06/27 08:24:16;0.00;0.00;0.62;0.00;0.00;0.62;7.00;6.30;;;29.30;36.40;;;;;;2250845;61;20467;-60
2022/06/27 08:27:04;0.00;0.00;0.62;0.00;0.00;0.62;6.23;5.73;;;29.20;36.40;;;;;;2251450;61;20398;-59
2022/06/27 08:29:48;0.00;0.00;0.62;0.00;0.00;0.62;6.13;5.60;;;29.20;36.50;;;;;;2251426;61;20772;-60
2022/06/27 08:32:33;0.00;0.00;0.62;0.00;0.00;0.62;7.70;6.50;;;29.20;36.70;;;;;;2246241;61;20398;-59
2022/06/27 08:35:19;0.00;0.00;0.62;0.00;0.00;0.62;5.80;5.30;;;29.20;36.70;;;;;;2621087;45;20460;-58
2022/06/27 08:38:06;0.00;0.00;0.62;0.00;0.00;0.62;6.40;5.80;;;29.20;36.70;;;;;;2274515;58;20393;-58
2022/06/27 08:40:54;0.00;0.00;0.62;0.00;0.00;0.62;5.83;4.80;;;29.20;36.80;;;;;;2250506;61;21054;-59
2022/06/27 08:43:40;0.00;0.00;0.62;0.00;0.00;0.62;5.30;4.80;;;29.20;36.80;;;;;;2247933;61;20445;-61
2022/06/27 08:46:26;0.00;0.00;0.62;0.00;0.00;0.62;5.60;5.20;;;29.20;36.80;;;;;;2250685;61;20390;-59
2022/06/27 08:49:14;0.00;0.00;0.62;0.00;0.00;0.62;7.00;6.50;;;29.20;36.70;;;;;;2251383;61;20429;-59
2022/06/27 08:52:00;0.00;0.00;0.62;0.00;0.00;0.62;6.33;5.73;;;29.30;36.90;;;;;;2250796;61;20434;-61
2022/06/27 08:54:47;0.00;0.00;0.62;0.00;0.00;0.62;7.27;6.67;;;29.30;36.80;;;;;;2249882;61;20900;-61
2022/06/27 08:57:32;0.00;0.00;0.62;0.00;0.00;0.62;6.50;6.00;;;29.30;37.00;;;;;;2250884;61;20371;-59
2022/06/27 09:00:18;0.00;0.00;0.62;0.00;0.00;0.62;5.50;5.00;;;29.30;37.00;;;;;;2250633;61;20946;-61
2022/06/27 09:03:03;0.00;0.00;0.62;0.00;0.00;0.62;6.20;5.60;;;29.30;37.00;;;;;;2246856;61;20635;-60
2022/06/27 09:05:57;0.00;0.00;0.62;0.00;0.00;0.62;6.40;5.80;;;29.30;37.10;;;;;;2251298;61;20382;-61
2022/06/27 09:08:55;0.00;0.00;0.62;0.00;0.00;0.62;6.40;5.80;;;29.20;36.90;;;;;;2250324;61;21011;-59
2022/06/27 09:11:49;0.00;0.00;0.62;0.00;0.00;0.62;6.07;5.47;;;29.30;37.10;;;;;;2250528;61;20398;-59
2022/06/27 09:14:37;0.00;0.00;0.62;0.00;0.00;0.62;5.03;4.63;;;29.30;37.10;;;;;;2247597;61;20363;-60
2022/06/27 09:17:23;0.00;0.00;0.62;0.00;0.00;0.62;5.87;5.47;;;29.30;37.00;;;;;;2251437;61;20418;-59
2022/06/27 09:20:09;0.00;0.00;0.62;0.00;0.00;0.62;7.03;6.00;;;29.30;36.90;;;;;;2250701;61;20420;-58
2022/06/27 09:22:55;0.00;0.00;0.62;0.00;0.00;0.62;6.07;5.47;;;29.30;37.10;;;;;;2482220;53;20388;-58
2022/06/27 09:25:40;0.00;0.00;0.62;0.00;0.00;0.62;5.40;5.00;;;29.40;37.10;;;;;;2250383;61;20382;-59
2022/06/27 09:28:39;0.00;0.00;0.62;0.00;0.00;0.62;6.93;6.33;;;29.40;37.00;;;;;;2249528;61;20492;-58
2022/06/27 09:31:39;0.00;0.00;0.62;0.00;0.00;0.62;7.67;6.27;;;29.40;37.10;;;;;;2250385;61;20371;-57
2022/06/27 09:34:24;0.00;0.00;0.62;0.00;0.00;0.62;5.97;5.00;;;29.40;37.20;;;;;;2251171;61;20758;-56
2022/06/27 09:37:11;0.00;0.00;0.62;0.00;0.00;0.62;6.90;6.40;;;29.40;37.20;;;;;;2251393;61;20375;-56
2022/06/27 09:39:57;0.00;0.00;0.62;0.00;0.00;0.62;6.13;5.60;;;29.40;37.20;;;;;;2251485;61;20926;-57
2022/06/27 09:42:43;0.00;0.00;0.62;0.00;0.00;0.62;6.20;5.60;;;29.50;37.20;;;;;;2248676;61;20371;-56
2022/06/27 09:45:30;0.00;0.00;0.62;0.00;0.00;0.62;6.90;6.23;;;29.50;37.10;;;;;;2251414;61;20379;-56
2022/06/27 09:48:17;0.00;0.00;0.62;0.00;0.00;0.62;7.30;6.07;;;29.50;37.10;;;;;;2251994;61;20382;-55
2022/06/27 09:51:03;0.00;0.00;0.62;0.00;0.00;0.62;6.20;5.70;;;29.50;37.20;;;;;;2251847;61;20426;-55
2022/06/27 09:53:50;0.00;0.00;0.62;0.00;0.00;0.62;6.43;5.93;;;29.50;37.20;;;;;;2251059;61;20453;-58
2022/06/27 09:56:39;0.00;0.00;0.62;0.00;0.00;0.62;7.40;6.80;;;29.50;37.20;;;;;;2251805;61;20470;-54
2022/06/27 09:59:24;0.00;0.00;0.62;0.00;0.00;0.62;6.43;5.60;;;29.50;37.20;;;;;;2251554;61;20378;-53
2022/06/27 10:02:13;0.00;0.00;0.62;0.00;0.00;0.62;6.37;5.87;;;29.60;37.40;;;;;;2473026;53;20362;-58
2022/06/27 10:04:59;0.00;0.00;0.62;0.00;0.00;0.62;6.97;6.37;;;29.60;37.30;;;;;;2577241;45;20384;-55
2022/06/27 10:07:51;0.00;0.00;0.62;0.00;0.00;0.62;6.60;6.00;;;29.60;37.30;;;;;;2247422;61;20387;-51
2022/06/27 10:11:06;0.00;0.00;0.62;0.00;0.00;0.62;7.43;6.83;;;29.70;37.40;;;;;;2247389;61;20462;-57
2022/06/27 10:14:20;0.00;0.00;0.62;0.00;0.00;0.62;7.97;7.17;;;29.70;37.30;;;;;;2247260;61;20986;-57
2022/06/27 10:17:13;0.00;0.00;0.62;0.00;0.00;0.62;8.10;7.27;;;29.70;37.20;;;;;;2247258;61;20406;-60
2022/06/27 10:20:08;0.00;0.00;0.62;0.00;0.00;0.62;7.87;7.23;;;29.80;37.30;;;;;;2248105;61;20387;-60
2022/06/27 10:23:28;0.00;0.00;0.62;0.00;0.00;0.62;8.07;7.00;;;29.80;37.30;;;;;;2247126;61;20431;-59
2022/06/27 10:26:40;0.00;0.00;0.62;0.00;0.00;0.62;8.33;7.63;;;29.80;37.20;;;;;;2248006;61;20367;-56
2022/06/27 10:29:39;0.00;0.00;0.62;0.00;0.00;0.62;7.17;6.67;;;29.80;37.20;;;;;;2247449;61;20419;-53
2022/06/27 10:32:46;0.00;0.00;0.62;0.00;0.00;0.62;7.77;7.27;;;29.90;37.20;;;;;;2247441;61;20442;-58
2022/06/27 10:35:33;0.00;0.00;0.62;0.00;0.00;0.62;9.73;8.87;;;29.90;37.20;;;;;;2247691;61;20400;-57
2022/06/27 10:38:22;0.00;0.00;0.62;0.00;0.00;0.62;8.43;7.73;;;29.90;37.10;;;;;;2247472;61;20391;-61
2022/06/27 10:41:09;0.00;0.00;0.62;0.00;0.00;0.62;8.40;7.70;;;29.90;37.10;;;;;;2247761;61;20889;-61
2022/06/27 10:43:54;0.00;0.00;0.62;0.00;0.00;0.62;8.60;7.80;;;29.90;37.10;;;;;;2247427;61;20395;-58
2022/06/27 10:46:43;0.00;0.00;0.62;0.00;0.00;0.62;8.37;7.37;;;30.00;37.00;;;;;;2244281;61;20388;-59
2022/06/27 10:49:31;0.00;0.00;0.62;0.00;0.00;0.62;8.30;7.60;;;30.00;37.00;;;;;;2248104;61;20477;-60
2022/06/27 10:52:35;0.00;0.00;0.62;0.00;0.00;0.62;8.17;7.47;;;30.10;37.10;;;;;;2247934;61;20364;-54
2022/06/27 10:55:22;0.00;0.00;0.62;0.00;0.00;0.62;8.07;7.33;;;30.10;37.00;;;;;;2247637;61;20542;-61
2022/06/27 10:58:21;0.00;0.00;0.62;0.00;0.00;0.62;10.63;9.53;;;30.10;36.90;;;;;;2247302;61;20532;-61
2022/06/27 11:01:13;0.00;0.00;0.62;0.00;0.00;0.62;8.83;8.03;;;30.10;37.10;;;;;;2247431;61;20868;-61
2022/06/27 11:03:59;0.00;0.00;0.62;0.00;0.00;0.62;9.90;9.10;;;30.20;37.10;;;;;;2247499;61;20956;-60
2022/06/27 11:06:56;0.00;0.00;0.62;0.00;0.00;0.62;10.10;9.10;;;30.20;37.20;;;;;;2247476;61;20780;-57